createdAt,value
2023-04-05T00:01:09.535Z,23.90
2023-04-05T00:03:37.299Z,23.15
2023-04-05T00:06:05.685Z,23.38
2023-04-05T00:08:34.064Z,24.92
2023-04-05T00:11:02.667Z,23.08
2023-04-05T00:13:30.731Z,23.00
2023-04-05T00:15:58.634Z,21.88
2023-04-05T00:18:27.169Z,23.63
2023-04-05T00:20:54.596Z,21.65
2023-04-05T00:23:23.171Z,22.58
2023-04-05T00:25:51.578Z,22.70
2023-04-05T00:28:19.148Z,22.15
2023-04-05T00:30:48.418Z,22.65
2023-04-05T00:33:15.906Z,22.13
2023-04-05T00:35:43.277Z,29.63
2023-04-05T00:38:12.825Z,24.42
2023-04-05T00:40:40.480Z,25.15
2023-04-05T00:43:08.361Z,22.33
2023-04-05T00:45:35.821Z,23.95
2023-04-05T00:48:06.737Z,22.10
2023-04-05T00:50:35.090Z,22.10
2023-04-05T00:53:05.792Z,21.65
2023-04-05T00:55:34.970Z,22.17
2023-04-05T00:58:02.395Z,23.27
2023-04-05T01:00:30.667Z,22.92
2023-04-05T01:03:04.503Z,24.08
2023-04-05T01:05:37.978Z,23.98
2023-04-05T01:08:33.280Z,24.55
2023-04-05T01:11:04.827Z,24.00
2023-04-05T01:13:33.687Z,23.40
2023-04-05T01:16:04.728Z,22.52
2023-04-05T01:18:33.387Z,24.25
2023-04-05T01:21:21.167Z,23.05
2023-04-05T01:24:21.365Z,22.83
2023-04-05T01:26:51.568Z,23.83
2023-04-05T01:29:32.889Z,23.15
2023-04-05T01:32:08.162Z,22.08
2023-04-05T01:34:35.615Z,22.08
2023-04-05T01:37:07.877Z,22.77
2023-04-05T01:39:37.543Z,20.97
2023-04-05T01:42:05.120Z,21.25
2023-04-05T01:44:32.668Z,22.25
2023-04-05T01:47:00.894Z,22.00
2023-04-05T01:49:28.986Z,23.35
2023-04-05T01:51:56.614Z,22.92
2023-04-05T01:54:23.920Z,22.75
2023-04-05T01:56:53.488Z,24.10
2023-04-05T01:59:21.978Z,24.23
2023-04-05T02:01:49.074Z,27.25
2023-04-05T02:04:16.282Z,22.63
2023-04-05T02:06:43.789Z,21.92
2023-04-05T02:09:13.343Z,20.88
2023-04-05T02:11:46.954Z,24.02
2023-04-05T02:14:14.481Z,24.50
2023-04-05T02:16:41.913Z,21.80
2023-04-05T02:19:09.409Z,21.52
2023-04-05T02:21:37.128Z,23.98
2023-04-05T02:24:04.803Z,21.38
2023-04-05T02:26:32.328Z,21.58
2023-04-05T02:29:00.731Z,23.15
2023-04-05T02:31:34.387Z,20.35
2023-04-05T02:34:02.172Z,20.98
2023-04-05T02:36:29.743Z,20.27
2023-04-05T02:38:59.162Z,19.90
2023-04-05T02:41:27.745Z,19.15
2023-04-05T02:43:55.156Z,19.17
2023-04-05T02:46:22.654Z,19.95
2023-04-05T02:48:50.076Z,19.10
2023-04-05T02:51:17.425Z,19.15
2023-04-05T02:53:48.545Z,18.77
2023-04-05T02:56:15.988Z,17.95
2023-04-05T02:58:43.532Z,19.15
2023-04-05T03:01:11.024Z,20.50
2023-04-05T03:03:40.525Z,19.77
2023-04-05T03:06:11.023Z,18.67
2023-04-05T03:08:46.815Z,18.60
2023-04-05T03:11:15.711Z,18.27
2023-04-05T03:13:43.061Z,18.60
2023-04-05T03:16:17.607Z,18.30
2023-04-05T03:18:45.129Z,19.00
2023-04-05T03:21:12.674Z,18.67
2023-04-05T03:23:40.062Z,18.75
2023-04-05T03:26:07.893Z,17.95
2023-04-05T03:28:36.621Z,19.42
2023-04-05T03:31:04.966Z,19.23
2023-04-05T03:33:32.472Z,19.17
2023-04-05T03:36:00.241Z,26.90
2023-04-05T03:38:28.717Z,22.95
2023-04-05T03:40:56.299Z,19.00
2023-04-05T03:43:23.741Z,18.33
2023-04-05T03:45:51.376Z,19.17
2023-04-05T03:48:24.790Z,19.90
2023-04-05T03:50:52.243Z,19.38
2023-04-05T03:53:19.873Z,20.05
2023-04-05T03:55:50.685Z,21.75
2023-04-05T03:58:18.259Z,20.33
2023-04-05T04:00:47.460Z,21.35
2023-04-05T04:03:15.421Z,19.08
2023-04-05T04:05:43.350Z,19.13
2023-04-05T04:08:11.301Z,18.38
2023-04-05T04:10:38.484Z,26.23
2023-04-05T04:13:05.664Z,35.72
2023-04-05T04:15:33.210Z,21.15
2023-04-05T04:18:02.783Z,20.27
2023-04-05T04:20:30.174Z,21.85
2023-04-05T04:22:59.608Z,22.05
2023-04-05T04:25:31.081Z,23.02
2023-04-05T04:27:58.935Z,21.83
2023-04-05T04:30:26.678Z,27.02
2023-04-05T04:32:55.435Z,20.92
2023-04-05T04:35:25.603Z,20.98
2023-04-05T04:38:00.955Z,20.63
2023-04-05T04:40:39.616Z,21.23
2023-04-05T04:43:10.495Z,19.65
2023-04-05T04:45:38.290Z,29.50
2023-04-05T04:48:05.724Z,30.80
2023-04-05T04:50:33.062Z,28.23
2023-04-05T04:53:04.766Z,25.77
2023-04-05T04:55:34.203Z,22.58
2023-04-05T04:58:01.380Z,23.88
2023-04-05T05:00:28.878Z,26.25
2023-04-05T05:02:56.515Z,23.63
2023-04-05T05:05:23.988Z,20.30
2023-04-05T05:07:52.978Z,21.58
2023-04-05T05:10:21.309Z,22.05
2023-04-05T05:12:52.065Z,21.60
2023-04-05T05:15:19.962Z,19.85
2023-04-05T05:17:47.651Z,21.88
2023-04-05T05:20:15.203Z,19.48
2023-04-05T05:22:42.826Z,20.05
2023-04-05T05:25:12.652Z,21.15
2023-04-05T05:27:40.247Z,20.48
2023-04-05T05:30:09.555Z,20.70
2023-04-05T05:32:37.164Z,25.70
2023-04-05T05:35:04.850Z,22.10
2023-04-05T05:37:32.966Z,22.05
2023-04-05T05:40:01.098Z,20.35
2023-04-05T05:42:28.641Z,24.30
2023-04-05T05:44:55.959Z,21.75
2023-04-05T05:47:23.417Z,21.02
2023-04-05T05:49:50.898Z,21.45
2023-04-05T05:52:18.366Z,28.63
2023-04-05T05:54:47.787Z,22.98
2023-04-05T05:57:16.425Z,38.20
2023-04-05T05:59:44.834Z,30.17
2023-04-05T06:02:12.703Z,41.47
2023-04-05T06:04:40.918Z,31.42
2023-04-05T06:07:08.120Z,59.85
2023-04-05T06:09:35.659Z,20.25
2023-04-05T06:12:10.859Z,20.77
2023-04-05T06:14:38.107Z,23.67
2023-04-05T06:17:05.120Z,18.80
2023-04-05T06:19:32.606Z,18.73
2023-04-05T06:22:01.200Z,17.85
2023-04-05T06:24:32.159Z,17.52
2023-04-05T06:26:59.944Z,16.45
2023-04-05T06:29:27.791Z,19.38
2023-04-05T06:31:55.958Z,16.20
2023-04-05T06:34:23.442Z,15.02
2023-04-05T06:36:51.010Z,17.58
2023-04-05T06:39:18.435Z,17.98
2023-04-05T11:08:31.671Z,7.70
2023-04-05T11:10:59.871Z,7.70
2023-04-05T11:13:56.743Z,13.82
2023-04-05T11:16:38.435Z,8.85
2023-04-05T11:19:06.459Z,6.57
2023-04-05T11:21:34.940Z,6.07
2023-04-05T11:24:06.959Z,6.05
2023-04-05T11:26:41.340Z,6.35
2023-04-05T11:29:08.767Z,6.68
2023-04-05T11:31:37.190Z,6.00
2023-04-05T11:34:12.518Z,5.53
2023-04-05T11:36:46.241Z,5.47
2023-04-05T11:39:19.856Z,5.88
2023-04-05T11:44:22.350Z,4.90
2023-04-05T11:46:50.110Z,5.70
2023-04-05T11:49:18.365Z,6.45
2023-04-05T11:51:50.633Z,8.82
2023-04-05T11:54:33.914Z,4.93
2023-04-05T11:57:02.436Z,4.97
2023-04-05T11:59:36.784Z,5.45
2023-04-05T12:02:09.553Z,5.03
2023-04-05T12:04:38.385Z,4.93
2023-04-05T12:07:26.760Z,12.02
2023-04-05T12:10:04.010Z,9.73
2023-04-05T12:12:40.845Z,18.48
2023-04-05T12:15:12.041Z,18.17
2023-04-05T12:17:42.722Z,5.40
2023-04-05T12:20:11.271Z,5.00
2023-04-05T12:22:40.966Z,5.50
2023-04-05T12:25:09.424Z,3.97
2023-04-05T12:27:37.373Z,3.90
2023-04-05T12:30:15.146Z,9.00
2023-04-05T12:32:45.262Z,4.25
2023-04-05T12:35:21.526Z,5.22
2023-04-05T12:37:58.453Z,10.50
2023-04-05T12:40:26.184Z,5.18
2023-04-05T12:43:09.556Z,4.72
2023-04-05T12:45:44.228Z,5.82
2023-04-05T12:48:22.465Z,4.03
2023-04-05T12:50:52.403Z,3.67
2023-04-05T12:53:22.514Z,3.47
2023-04-05T12:55:54.289Z,3.15
2023-04-05T12:58:23.158Z,3.30
2023-04-05T13:00:50.731Z,3.60
2023-04-05T13:03:21.386Z,3.40
2023-04-05T13:05:49.554Z,38.30
2023-04-05T13:08:20.292Z,6.30
2023-04-05T13:10:50.306Z,6.47
2023-04-05T13:13:18.494Z,3.95
2023-04-05T13:15:47.017Z,3.70
2023-04-05T13:18:15.280Z,3.58
2023-04-05T13:20:43.123Z,3.90
2023-04-05T13:23:13.061Z,3.08
2023-04-05T13:25:42.289Z,4.60
2023-04-05T13:28:10.082Z,4.90
2023-04-05T13:30:37.944Z,8.57
2023-04-05T13:33:06.033Z,5.68
2023-04-05T13:35:33.929Z,4.25
2023-04-05T13:38:04.262Z,3.70
2023-04-05T13:40:33.250Z,7.65
2023-04-05T13:43:02.635Z,3.50
2023-04-05T13:45:32.248Z,4.00
2023-04-05T13:48:04.704Z,4.00
2023-04-05T13:50:32.130Z,3.58
2023-04-05T13:52:59.590Z,4.07
2023-04-05T13:55:26.623Z,3.65
2023-04-05T13:58:01.260Z,4.90
2023-04-05T14:00:28.485Z,3.38
2023-04-05T14:02:57.173Z,3.20
2023-04-05T14:05:24.566Z,5.07
2023-04-05T14:07:53.673Z,2.97
2023-04-05T14:10:22.740Z,8.68
2023-04-05T14:12:50.487Z,10.23
2023-04-05T14:15:20.657Z,10.65
2023-04-05T14:17:49.554Z,3.33
2023-04-05T14:20:17.929Z,3.00
2023-04-05T14:25:18.047Z,3.40
2023-04-05T14:27:53.253Z,3.70
2023-04-05T14:30:20.936Z,3.40
2023-04-05T14:32:47.992Z,3.03
2023-04-05T14:35:16.452Z,3.30
2023-04-05T14:37:43.554Z,3.17
2023-04-05T14:40:11.308Z,3.42
2023-04-05T14:42:48.294Z,3.58
2023-04-05T14:45:17.498Z,3.40
2023-04-05T14:47:45.179Z,3.70
2023-04-05T14:50:13.585Z,3.45
2023-04-05T14:52:47.152Z,4.70
2023-04-05T14:55:15.076Z,7.18
2023-04-05T14:57:43.289Z,4.93
2023-04-05T15:00:12.264Z,4.57
2023-04-05T15:02:39.858Z,4.00
2023-04-05T15:05:08.105Z,4.40
2023-04-05T15:07:37.515Z,3.60
2023-04-05T15:10:07.268Z,10.45
2023-04-05T15:12:34.606Z,5.28
2023-04-05T15:15:02.539Z,9.45
2023-04-05T15:17:29.973Z,6.95
2023-04-05T15:19:57.379Z,4.85
2023-04-05T15:22:24.864Z,4.13
2023-04-05T15:24:52.400Z,4.07
2023-04-05T15:27:19.688Z,3.80
2023-04-05T15:29:47.280Z,24.63
2023-04-05T15:32:14.618Z,11.52
2023-04-05T15:34:42.253Z,16.80
2023-04-05T15:37:10.517Z,4.80
2023-04-05T15:39:38.369Z,4.30
2023-04-05T15:42:05.506Z,4.40
2023-04-05T15:44:35.040Z,16.67
2023-04-05T15:47:03.890Z,6.00
2023-04-05T15:49:31.400Z,10.57
2023-04-05T15:52:00.410Z,12.95
2023-04-05T15:54:28.962Z,5.15
2023-04-05T15:56:58.451Z,17.98
2023-04-05T15:59:28.250Z,7.45
2023-04-05T16:01:55.537Z,6.78
2023-04-05T16:04:23.513Z,8.38
2023-04-05T16:06:50.629Z,8.57
2023-04-05T16:09:17.738Z,6.10
2023-04-05T16:11:45.375Z,5.47
2023-04-05T16:14:14.381Z,5.28
2023-04-05T16:16:52.853Z,6.07
2023-04-05T16:19:24.482Z,7.85
2023-04-05T16:21:54.163Z,21.15
2023-04-05T16:24:21.815Z,27.88
2023-04-05T16:26:49.521Z,20.65
2023-04-05T16:29:16.877Z,12.15
2023-04-05T16:31:47.716Z,8.27
2023-04-05T16:34:15.813Z,7.00
2023-04-05T16:36:43.356Z,7.32
2023-04-05T16:39:10.745Z,7.03
2023-04-05T16:41:38.317Z,22.80
2023-04-05T16:44:05.896Z,18.42
2023-04-05T16:46:33.213Z,25.42
2023-04-05T16:49:01.045Z,9.57
2023-04-05T16:51:28.902Z,16.98
2023-04-05T16:53:56.101Z,9.05
2023-04-05T16:56:24.597Z,6.50
2023-04-05T16:58:53.006Z,5.78
2023-04-05T17:01:20.735Z,6.93
2023-04-05T17:03:48.960Z,6.93
2023-04-05T17:06:16.610Z,6.68
2023-04-05T17:08:54.339Z,7.07
2023-04-05T17:11:23.748Z,7.05
2023-04-05T17:13:51.303Z,7.45
2023-04-05T17:16:19.874Z,7.20
2023-04-05T17:18:47.228Z,6.82
2023-04-05T17:21:14.554Z,7.25
2023-04-05T17:23:42.040Z,6.55
2023-04-05T17:26:11.777Z,6.70
2023-04-05T17:28:38.999Z,6.85
2023-04-05T17:31:07.624Z,6.28
2023-04-05T17:33:35.070Z,6.28
2023-04-05T17:36:04.399Z,94.47
2023-04-05T17:38:32.891Z,23.33
2023-04-05T17:41:03.542Z,19.88
2023-04-05T17:43:30.901Z,11.73
2023-04-05T17:45:58.362Z,7.70
2023-04-05T17:48:29.711Z,6.70
2023-04-05T17:50:57.847Z,15.88
2023-04-05T17:53:26.117Z,11.65
2023-04-05T17:55:56.448Z,11.45
2023-04-05T17:58:24.154Z,16.25
2023-04-05T18:00:52.561Z,12.85
2023-04-05T18:03:20.066Z,13.32
2023-04-05T18:05:55.051Z,8.48
2023-04-05T18:08:24.007Z,15.73
2023-04-05T18:11:00.598Z,20.20
2023-04-05T18:13:28.995Z,17.80
2023-04-05T18:16:00.119Z,14.75
2023-04-05T18:18:27.937Z,18.42
2023-04-05T18:20:56.185Z,18.08
2023-04-05T18:23:27.482Z,13.23
2023-04-05T18:25:55.251Z,11.00
2023-04-05T18:28:23.749Z,8.90
2023-04-05T18:30:51.458Z,8.10
2023-04-05T18:33:19.199Z,8.80
2023-04-05T18:35:51.237Z,10.50
2023-04-05T18:38:20.056Z,11.55
2023-04-05T18:40:48.675Z,10.45
2023-04-05T18:43:24.100Z,12.75
2023-04-05T18:45:54.873Z,13.25
2023-04-05T18:48:24.537Z,12.85
2023-04-05T18:50:54.143Z,13.82
2023-04-05T18:53:24.873Z,9.85
2023-04-05T18:55:55.921Z,11.02
2023-04-05T18:58:23.382Z,15.98
2023-04-05T19:00:50.799Z,13.43
2023-04-05T19:03:19.655Z,14.10
2023-04-05T19:05:51.463Z,14.57
2023-04-05T19:08:19.492Z,13.65
2023-04-05T19:10:49.329Z,17.52
2023-04-05T19:13:16.979Z,35.55
2023-04-05T19:15:46.217Z,45.28
2023-04-05T19:18:14.211Z,64.43
2023-04-05T19:20:42.615Z,27.27
2023-04-05T19:23:10.953Z,39.00
2023-04-05T19:25:39.133Z,41.00
2023-04-05T19:28:07.851Z,12.95
2023-04-05T19:30:35.441Z,13.30
2023-04-05T19:33:04.803Z,13.60
2023-04-05T19:35:34.344Z,13.40
2023-04-05T19:38:01.617Z,18.20
2023-04-05T19:40:29.492Z,14.75
2023-04-05T19:42:59.920Z,12.35
2023-04-05T19:45:33.602Z,10.70
2023-04-05T19:48:02.309Z,10.30
2023-04-05T19:50:39.345Z,13.00
2023-04-05T19:53:08.639Z,12.65
2023-04-05T19:55:45.674Z,14.05
2023-04-05T19:58:26.394Z,13.85
2023-04-05T20:00:55.956Z,14.75
2023-04-05T20:03:38.200Z,18.15
2023-04-05T20:06:17.200Z,17.58
2023-04-05T20:08:46.946Z,16.83
2023-04-05T20:11:20.787Z,16.73
2023-04-05T20:13:56.477Z,16.45
2023-04-05T20:16:35.401Z,13.68
2023-04-05T20:19:08.746Z,13.82
2023-04-05T20:21:38.280Z,18.90
2023-04-05T20:24:10.073Z,14.52
2023-04-05T20:26:39.118Z,14.93
2023-04-05T20:29:08.718Z,15.70
2023-04-05T20:31:40.249Z,19.50
2023-04-05T20:34:38.308Z,17.88
2023-04-05T20:37:11.465Z,18.30
2023-04-05T20:39:38.945Z,16.80
2023-04-05T20:42:07.685Z,18.58
2023-04-05T20:44:35.391Z,22.95
2023-04-05T20:47:05.913Z,27.83
2023-04-05T20:49:34.748Z,24.55
2023-04-05T20:52:07.869Z,25.08
2023-04-05T20:54:35.806Z,21.58
2023-04-05T20:57:03.308Z,24.35
2023-04-05T20:59:31.055Z,25.60
2023-04-05T21:02:00.318Z,22.52
2023-04-05T21:04:29.967Z,19.65
2023-04-05T21:06:57.408Z,19.42
2023-04-05T21:09:25.485Z,19.88
2023-04-05T21:11:52.646Z,16.63
2023-04-05T21:14:20.077Z,15.35
2023-04-05T21:16:47.587Z,15.43
2023-04-05T21:19:15.052Z,15.85
2023-04-05T21:21:42.440Z,14.98
2023-04-05T21:24:09.985Z,15.30
2023-04-05T21:26:37.404Z,16.05
2023-04-05T21:29:04.959Z,15.95
2023-04-05T21:31:32.321Z,16.35
2023-04-05T21:33:59.731Z,16.20
2023-04-05T21:36:27.538Z,16.50
2023-04-05T21:38:54.751Z,21.17
2023-04-05T21:41:23.340Z,18.85
2023-04-05T21:43:50.790Z,18.63
2023-04-05T21:46:24.260Z,19.80
2023-04-05T21:48:51.732Z,24.83
2023-04-05T21:51:19.197Z,22.15
2023-04-05T21:53:48.349Z,24.33
2023-04-05T21:56:16.983Z,33.90
2023-04-05T21:58:44.626Z,33.60
2023-04-05T22:01:14.292Z,24.58
2023-04-05T22:03:42.634Z,20.38
2023-04-05T22:06:09.992Z,21.42
2023-04-05T22:08:37.573Z,23.27
2023-04-05T22:11:06.478Z,22.83
2023-04-05T22:13:33.989Z,32.38
2023-04-05T22:16:01.637Z,27.77
2023-04-05T22:18:29.298Z,25.35
2023-04-05T22:20:56.994Z,26.73
2023-04-05T22:23:24.253Z,26.70
2023-04-05T22:25:53.627Z,28.15
2023-04-05T22:28:21.861Z,25.48
2023-04-05T22:30:49.943Z,23.73
2023-04-05T22:33:18.067Z,22.42
2023-04-05T22:35:45.746Z,22.73
2023-04-05T22:38:13.980Z,25.63
2023-04-05T22:40:41.344Z,22.80
2023-04-05T22:43:10.846Z,22.23
2023-04-05T22:45:38.921Z,22.15
2023-04-05T22:48:06.813Z,22.33
2023-04-05T22:50:34.541Z,21.88
2023-04-05T22:53:05.466Z,23.80
2023-04-05T22:55:34.099Z,23.80
2023-04-05T22:58:03.551Z,27.98
2023-04-05T23:00:31.015Z,26.20
2023-04-05T23:02:58.512Z,26.77
2023-04-05T23:05:26.485Z,25.42
2023-04-05T23:07:53.966Z,23.63
2023-04-05T23:10:21.766Z,24.98
2023-04-05T23:12:49.348Z,25.98
2023-04-05T23:15:16.773Z,23.02
2023-04-05T23:17:44.607Z,22.80
2023-04-05T23:20:12.310Z,22.88
2023-04-05T23:22:40.670Z,28.00
2023-04-05T23:25:08.937Z,28.80
2023-04-05T23:27:37.081Z,28.00
2023-04-05T23:30:06.987Z,27.50
2023-04-05T23:32:34.734Z,25.15
2023-04-05T23:35:03.126Z,23.25
2023-04-05T23:37:32.141Z,23.50
2023-04-05T23:39:59.536Z,24.45
2023-04-05T23:42:27.051Z,25.40
2023-04-05T23:44:55.651Z,26.77
2023-04-05T23:47:23.133Z,26.77
2023-04-05T23:49:52.321Z,29.25
2023-04-05T23:52:19.906Z,27.55
2023-04-05T23:54:47.318Z,27.85
2023-04-05T23:57:16.074Z,28.48
2023-04-05T23:59:45.346Z,28.20
